createdAt,value
2019-04-04T00:02:04.314Z,9.70
2019-04-04T00:04:35.510Z,9.60
2019-04-04T00:07:06.698Z,9.50
2019-04-04T00:09:37.809Z,9.50
2019-04-04T00:12:08.978Z,9.50
2019-04-04T00:14:40.305Z,9.60
2019-04-04T00:17:11.644Z,9.60
2019-04-04T00:19:42.810Z,9.50
2019-04-04T00:22:13.941Z,9.40
2019-04-04T00:24:45.082Z,9.50
2019-04-04T00:27:16.370Z,9.50
2019-04-04T00:29:47.987Z,9.40
2019-04-04T00:32:21.069Z,9.30
2019-04-04T00:34:52.854Z,9.20
2019-04-04T00:37:23.977Z,9.10
2019-04-04T00:39:56.158Z,9.10
2019-04-04T00:42:28.414Z,9.10
2019-04-04T00:44:59.595Z,9.20
2019-04-04T00:47:32.325Z,9.20
2019-04-04T00:50:06.126Z,9.10
2019-04-04T00:52:36.467Z,9.10
2019-04-04T00:55:07.733Z,9.10
2019-04-04T00:57:38.870Z,9.10
2019-04-04T01:00:10.322Z,9.10
2019-04-04T01:02:41.565Z,9.20
2019-04-04T01:05:12.742Z,9.10
2019-04-04T01:07:43.837Z,9.20
2019-04-04T01:10:15.128Z,9.20
2019-04-04T01:12:46.245Z,9.20
2019-04-04T01:15:17.609Z,9.20
2019-04-04T01:17:48.751Z,9.10
2019-04-04T01:20:20.339Z,9.10
2019-04-04T01:22:51.858Z,9.20
2019-04-04T01:25:22.995Z,9.20
2019-04-04T01:27:54.286Z,9.20
2019-04-04T01:30:25.491Z,9.10
2019-04-04T01:32:56.782Z,9.10
2019-04-04T01:35:27.906Z,9.10
2019-04-04T01:38:00.085Z,9.10
2019-04-04T01:40:33.699Z,9.00
2019-04-04T01:43:04.346Z,8.90
2019-04-04T01:45:55.208Z,8.80
2019-04-04T01:48:26.374Z,8.80
2019-04-04T01:50:57.466Z,8.70
2019-04-04T01:53:30.125Z,8.70
2019-04-04T01:56:01.421Z,8.60
2019-04-04T01:58:32.638Z,8.60
2019-04-04T02:01:03.798Z,8.60
2019-04-04T02:03:34.982Z,8.50
2019-04-04T02:06:06.182Z,8.40
2019-04-04T02:08:37.554Z,8.30
2019-04-04T02:11:09.102Z,8.30
2019-04-04T02:13:40.843Z,8.10
2019-04-04T02:16:12.642Z,8.00
2019-04-04T02:18:43.734Z,7.90
2019-04-04T02:21:15.322Z,7.80
2019-04-04T02:23:46.466Z,7.70
2019-04-04T02:26:17.591Z,7.70
2019-04-04T02:28:48.758Z,7.50
2019-04-04T02:31:21.003Z,7.40
2019-04-04T02:33:52.893Z,7.30
2019-04-04T02:36:24.036Z,7.30
2019-04-04T02:39:10.410Z,7.20
2019-04-04T02:41:41.665Z,7.00
2019-04-04T02:44:14.143Z,6.90
2019-04-04T02:46:45.807Z,6.90
2019-04-04T02:49:17.062Z,6.90
2019-04-04T02:51:48.208Z,6.90
2019-04-04T02:54:23.979Z,6.90
2019-04-04T02:56:52.148Z,6.90
2019-04-04T02:59:23.370Z,7.00
2019-04-04T03:04:24.946Z,7.10
2019-04-04T03:06:58.477Z,7.10
2019-04-04T03:09:30.527Z,7.10
2019-04-04T03:12:01.716Z,7.10
2019-04-04T03:17:04.763Z,7.00
2019-04-04T03:19:35.995Z,6.90
2019-04-04T03:22:10.504Z,6.90
2019-04-04T03:24:45.131Z,6.90
2019-04-04T03:27:16.641Z,6.90
2019-04-04T03:29:47.918Z,6.90
2019-04-04T03:32:19.139Z,6.90
2019-04-04T03:34:52.641Z,6.90
2019-04-04T03:37:24.774Z,6.90
2019-04-04T03:39:57.588Z,6.90
2019-04-04T03:42:28.917Z,6.80
2019-04-04T03:45:00.218Z,6.80
2019-04-04T03:47:31.689Z,6.70
2019-04-04T03:50:03.204Z,6.70
2019-04-04T03:52:34.561Z,6.80
2019-04-04T03:55:06.824Z,6.70
2019-04-04T03:57:38.859Z,6.60
2019-04-04T04:00:11.064Z,6.70
2019-04-04T04:02:42.555Z,6.70
2019-04-04T04:05:26.745Z,6.60
2019-04-04T04:07:59.617Z,6.50
2019-04-04T04:10:33.835Z,6.40
2019-04-04T04:13:05.506Z,6.40
2019-04-04T04:15:37.250Z,6.40
2019-04-04T04:18:08.384Z,6.40
2019-04-04T04:23:10.207Z,6.40
2019-04-04T04:25:44.385Z,6.30
2019-04-04T04:28:19.807Z,6.30
2019-04-04T04:30:48.411Z,6.30
2019-04-04T04:33:19.733Z,6.30
2019-04-04T04:35:51.530Z,6.30
2019-04-04T04:38:25.210Z,6.30
2019-04-04T04:40:56.774Z,6.30
2019-04-04T04:43:32.409Z,6.30
2019-04-04T04:46:01.043Z,6.30
2019-04-04T04:48:32.237Z,6.30
2019-04-04T04:51:04.072Z,6.30
2019-04-04T04:56:05.703Z,6.50
2019-04-04T04:58:36.778Z,6.60
2019-04-04T05:01:08.154Z,6.60
2019-04-04T05:03:39.530Z,6.70
2019-04-04T05:06:22.955Z,6.70
2019-04-04T05:08:54.121Z,6.70
2019-04-04T05:11:26.718Z,6.80
2019-04-04T05:13:58.174Z,6.90
2019-04-04T05:16:29.952Z,7.00
2019-04-04T05:19:01.131Z,7.00
2019-04-04T05:21:34.559Z,7.10
2019-04-04T05:24:07.142Z,7.10
2019-04-04T05:26:38.827Z,7.20
2019-04-04T05:29:13.220Z,7.30
2019-04-04T05:31:43.922Z,7.40
2019-04-04T05:34:15.011Z,7.40
2019-04-04T05:36:46.138Z,7.50
2019-04-04T05:39:18.141Z,7.50
2019-04-04T05:41:49.830Z,7.60
2019-04-04T05:44:21.024Z,7.70
2019-04-04T05:46:52.264Z,7.80
2019-04-04T05:49:23.392Z,7.90
2019-04-04T05:51:54.510Z,8.00
2019-04-04T05:54:25.682Z,8.10
2019-04-04T05:56:56.834Z,8.30
2019-04-04T05:59:28.017Z,8.40
2019-04-04T06:01:59.082Z,8.50
2019-04-04T06:04:30.278Z,8.70
2019-04-04T06:07:03.930Z,8.80
2019-04-04T06:09:34.190Z,8.90
2019-04-04T06:12:05.414Z,9.10
2019-04-04T06:14:36.449Z,9.30
2019-04-04T06:17:07.913Z,9.40
2019-04-04T06:19:39.098Z,9.50
2019-04-04T06:22:10.306Z,9.70
2019-04-04T06:24:41.462Z,9.90
2019-04-04T06:27:12.582Z,10.10
2019-04-04T06:29:43.752Z,10.40
2019-04-04T06:32:14.882Z,10.80
2019-04-04T06:34:46.018Z,11.20
2019-04-04T06:37:18.072Z,11.50
2019-04-04T06:39:49.943Z,11.80
2019-04-04T06:42:21.090Z,11.90
2019-04-04T06:44:54.229Z,12.20
2019-04-04T06:47:25.529Z,12.30
2019-04-04T06:49:57.409Z,12.50
2019-04-04T06:52:28.567Z,12.70
2019-04-04T06:55:00.102Z,13.10
2019-04-04T06:57:31.262Z,13.40
2019-04-04T07:00:03.606Z,13.40
2019-04-04T07:02:35.010Z,13.70
2019-04-04T07:05:10.322Z,13.80
2019-04-04T07:07:43.172Z,14.00
2019-04-04T07:12:44.551Z,14.30
2019-04-04T07:15:16.197Z,14.60
2019-04-04T07:17:47.479Z,15.10
2019-04-04T07:20:18.614Z,15.40
2019-04-04T07:22:49.762Z,15.30
2019-04-04T07:27:51.250Z,16.20
2019-04-04T07:30:22.371Z,16.30
2019-04-04T07:32:53.558Z,16.90
2019-04-04T07:35:24.659Z,17.00
2019-04-04T07:37:57.585Z,16.90
2019-04-04T07:40:28.599Z,17.50
2019-04-04T07:42:59.846Z,17.80
2019-04-04T07:45:31.074Z,17.90
2019-04-04T07:48:02.371Z,17.80
2019-04-04T07:50:33.564Z,17.90
2019-04-04T07:55:36.173Z,18.00
2019-04-04T07:58:07.310Z,19.00
2019-04-04T08:00:39.021Z,18.90
2019-04-04T08:03:10.222Z,19.00
2019-04-04T08:05:42.266Z,18.80
2019-04-04T08:08:13.452Z,19.20
2019-04-04T08:10:44.580Z,19.40
2019-04-04T08:15:46.574Z,19.40
2019-04-04T08:18:17.702Z,19.30
2019-04-04T08:20:49.502Z,19.80
2019-04-04T08:23:20.706Z,20.20
2019-04-04T08:25:51.842Z,20.20
2019-04-04T08:28:22.985Z,20.50
2019-04-04T08:30:54.746Z,20.90
2019-04-04T08:33:26.523Z,20.70
2019-04-04T08:36:06.018Z,20.60
2019-04-04T08:38:30.482Z,20.40
2019-04-04T08:43:33.690Z,20.50
2019-04-04T08:46:05.497Z,20.50
2019-04-04T08:48:36.670Z,20.70
2019-04-04T08:51:08.437Z,21.00
2019-04-04T08:53:40.591Z,21.20
2019-04-04T08:56:12.361Z,20.80
2019-04-04T08:58:44.125Z,21.40
2019-04-04T09:01:15.858Z,21.50
2019-04-04T09:06:19.426Z,21.10
2019-04-04T09:08:52.315Z,20.80
2019-04-04T09:11:24.938Z,20.70
2019-04-04T09:13:56.730Z,21.60
2019-04-04T09:16:29.590Z,22.00
2019-04-04T09:19:01.370Z,22.00
2019-04-04T09:21:33.200Z,21.20
2019-04-04T09:24:05.114Z,21.90
2019-04-04T09:26:36.831Z,23.10
2019-04-04T09:29:08.594Z,22.00
2019-04-04T09:31:40.217Z,22.20
2019-04-04T09:36:42.785Z,21.70
2019-04-04T09:39:14.505Z,22.10
2019-04-04T09:41:46.254Z,22.30
2019-04-04T09:46:48.842Z,22.70
2019-04-04T09:49:21.578Z,23.70
2019-04-04T09:51:53.386Z,23.80
2019-04-04T09:54:25.257Z,24.70
2019-04-04T09:56:57.022Z,24.20
2019-04-04T09:59:28.818Z,23.10
2019-04-04T10:02:00.517Z,23.10
2019-04-04T10:04:32.315Z,23.10
2019-04-04T10:09:36.026Z,23.10
2019-04-04T10:12:07.791Z,24.00
2019-04-04T10:17:10.358Z,24.30
2019-04-04T10:19:43.198Z,24.40
2019-04-04T10:22:14.933Z,24.00
2019-04-04T10:24:46.622Z,23.90
2019-04-04T10:27:18.330Z,24.00
2019-04-04T10:29:50.362Z,24.30
2019-04-04T10:37:23.633Z,24.80
2019-04-04T10:42:26.267Z,26.00
2019-04-04T10:50:53.329Z,25.10
2019-04-04T10:53:25.223Z,24.30
2019-04-04T10:55:56.946Z,25.70
2019-04-04T10:58:28.714Z,26.50
2019-04-04T11:01:00.342Z,25.60
2019-04-04T11:03:32.053Z,26.60
2019-04-04T11:08:35.750Z,25.80
2019-04-04T11:16:06.767Z,26.90
2019-04-04T11:18:38.593Z,25.90
2019-04-04T11:21:10.386Z,27.00
2019-04-04T11:23:42.199Z,26.00
2019-04-04T11:26:13.978Z,25.50
2019-04-04T11:28:45.739Z,26.80
2019-04-04T11:31:17.498Z,26.40
2019-04-04T11:33:49.233Z,27.50
2019-04-04T11:36:22.768Z,27.40
2019-04-04T11:38:54.507Z,27.90
2019-04-04T11:41:26.309Z,26.80
2019-04-04T11:46:29.053Z,27.00
2019-04-04T11:49:00.819Z,27.90
2019-04-04T11:51:32.602Z,26.40
2019-04-04T11:56:35.427Z,26.10
2019-04-04T11:59:08.281Z,25.50
2019-04-04T12:01:41.454Z,25.90
2019-04-04T12:04:13.265Z,26.60
2019-04-04T12:06:44.883Z,26.90
2019-04-04T12:09:16.642Z,27.90
2019-04-04T12:11:48.383Z,26.60
2019-04-04T12:14:20.092Z,28.00
2019-04-04T12:16:51.824Z,27.50
2019-04-04T12:19:24.609Z,26.30
2019-04-04T12:24:27.194Z,25.80
2019-04-04T12:26:58.963Z,26.70
2019-04-04T12:29:30.727Z,27.00
2019-04-04T12:34:33.295Z,28.00
2019-04-04T12:39:36.211Z,27.90
2019-04-04T12:42:07.994Z,28.10
2019-04-04T12:44:39.730Z,28.40
2019-04-04T12:47:11.494Z,29.20
2019-04-04T12:49:43.366Z,29.10
2019-04-04T12:52:15.094Z,27.00
2019-04-04T12:54:46.798Z,24.60
2019-04-04T12:57:18.530Z,26.30
2019-04-04T12:59:50.298Z,26.90
2019-04-04T13:02:22.050Z,26.60
2019-04-04T13:04:53.834Z,24.20
2019-04-04T13:07:25.562Z,24.90
2019-04-04T13:09:57.338Z,26.60
2019-04-04T13:12:30.001Z,27.20
2019-04-04T13:15:02.512Z,27.10
2019-04-04T13:17:34.325Z,26.70
2019-04-04T13:30:49.970Z,27.50
2019-04-04T13:33:22.651Z,26.40
2019-04-04T13:35:54.494Z,27.20
2019-04-04T13:40:57.094Z,26.40
2019-04-04T13:43:28.838Z,26.90
2019-04-04T13:46:00.638Z,28.00
2019-04-04T13:51:03.213Z,26.00
2019-04-04T13:53:34.947Z,27.30
2019-04-04T13:56:06.701Z,27.40
2019-04-04T14:01:09.410Z,27.70
2019-04-04T14:03:41.210Z,27.50
2019-04-04T14:06:13.036Z,28.30
2019-04-04T14:08:45.870Z,28.50
2019-04-04T14:11:17.673Z,27.90
2019-04-04T14:13:49.637Z,27.30
2019-04-04T14:16:21.284Z,27.00
2019-04-04T14:18:52.978Z,27.10
2019-04-04T14:21:24.714Z,26.40
2019-04-04T14:23:57.030Z,26.20
2019-04-04T14:26:29.359Z,26.10
2019-04-04T14:29:04.596Z,26.50
2019-04-04T14:31:35.535Z,27.10
2019-04-04T14:34:11.204Z,28.60
2019-04-04T14:36:40.699Z,28.50
2019-04-04T14:39:12.547Z,27.30
2019-04-04T14:41:44.171Z,27.20
2019-04-04T14:44:15.901Z,26.10
2019-04-04T14:46:48.344Z,26.10
2019-04-04T14:49:20.010Z,25.60
2019-04-04T14:51:51.742Z,25.60
2019-04-04T14:54:23.549Z,25.20
2019-04-04T14:59:26.046Z,24.30
2019-04-04T15:01:57.754Z,24.80
2019-04-04T15:04:29.553Z,25.20
2019-04-04T15:07:01.290Z,23.80
2019-04-04T15:09:33.158Z,24.20
2019-04-04T15:12:04.922Z,24.70
2019-04-04T15:14:36.713Z,24.30
2019-04-04T15:17:08.439Z,24.50
2019-04-04T15:22:11.058Z,24.10
2019-04-04T15:29:44.507Z,24.10
2019-04-04T15:32:16.259Z,23.20
2019-04-04T15:34:47.959Z,23.30
2019-04-04T15:39:50.458Z,23.50
2019-04-04T15:42:22.162Z,23.20
2019-04-04T15:44:54.886Z,22.90
2019-04-04T15:47:26.603Z,22.50
2019-04-04T15:49:57.689Z,22.60
2019-04-04T15:52:28.742Z,22.50
2019-04-04T15:54:59.898Z,22.50
2019-04-04T15:57:31.078Z,22.00
2019-04-04T16:00:02.176Z,22.00
2019-04-04T16:02:34.371Z,22.00
2019-04-04T16:07:36.917Z,21.10
2019-04-04T16:10:09.819Z,20.50
2019-04-04T16:12:41.614Z,19.70
2019-04-04T16:15:13.658Z,19.40
2019-04-04T16:17:44.803Z,19.30
2019-04-04T16:20:16.754Z,19.10
2019-04-04T16:22:48.358Z,19.00
2019-04-04T16:37:51.022Z,18.40
2019-04-04T16:50:23.633Z,17.60
2019-04-04T16:55:25.642Z,17.30
2019-04-04T17:00:28.493Z,17.00
2019-04-04T17:02:59.722Z,16.90
2019-04-04T17:05:31.770Z,16.60
2019-04-04T17:08:03.157Z,16.40
2019-04-04T17:10:34.950Z,16.30
2019-04-04T17:13:06.178Z,16.00
2019-04-04T17:15:37.455Z,15.90
2019-04-04T17:18:08.786Z,15.70
2019-04-04T17:20:39.962Z,15.60
2019-04-04T17:23:11.583Z,15.50
2019-04-04T17:25:42.659Z,15.40
2019-04-04T17:28:14.491Z,15.50
2019-04-04T17:30:46.173Z,15.70
2019-04-04T17:33:17.514Z,15.70
2019-04-04T17:35:49.140Z,15.70
2019-04-04T17:38:21.577Z,15.70
2019-04-04T17:40:52.959Z,15.50
2019-04-04T17:43:24.284Z,15.40
2019-04-04T17:45:56.418Z,15.30
2019-04-04T17:48:28.438Z,15.20
2019-04-04T17:51:00.931Z,15.10
2019-04-04T17:53:32.279Z,14.90
2019-04-04T17:56:04.061Z,14.80
2019-04-04T17:58:35.731Z,14.80
2019-04-04T18:01:08.568Z,14.80
2019-04-04T18:03:39.842Z,14.80
2019-04-04T18:06:10.994Z,14.80
2019-04-04T18:08:42.220Z,14.70
2019-04-04T18:11:13.410Z,14.80
2019-04-04T18:16:14.882Z,14.80
2019-04-04T18:21:16.450Z,14.90
2019-04-04T18:26:31.118Z,14.90
2019-04-04T18:29:06.329Z,14.90
2019-04-04T18:31:37.398Z,14.80
2019-04-04T18:34:10.654Z,14.70
2019-04-04T18:39:12.705Z,14.60
2019-04-04T18:41:44.026Z,14.50
2019-04-04T18:44:15.155Z,14.40
2019-04-04T18:49:16.623Z,14.20
2019-04-04T18:51:47.631Z,14.10
2019-04-04T18:54:19.225Z,14.00
2019-04-04T18:59:20.846Z,13.80
2019-04-04T19:01:52.251Z,13.80
2019-04-04T19:04:23.470Z,13.70
2019-04-04T19:06:55.014Z,13.60
2019-04-04T19:09:26.438Z,13.50
2019-04-04T19:11:57.621Z,13.50
2019-04-04T19:14:28.830Z,13.40
2019-04-04T19:17:00.132Z,13.40
2019-04-04T19:19:31.826Z,13.40
2019-04-04T19:22:02.922Z,13.30
2019-04-04T19:24:34.217Z,13.30
2019-04-04T19:27:05.437Z,13.30
2019-04-04T19:29:36.874Z,13.30
2019-04-04T19:32:08.550Z,13.40
2019-04-04T19:34:39.955Z,13.40
2019-04-04T19:37:14.047Z,13.50
2019-04-04T19:39:49.251Z,13.50
2019-04-04T19:42:20.982Z,13.40
2019-04-04T19:44:53.427Z,13.30
2019-04-04T19:47:25.036Z,13.30
2019-04-04T19:49:56.193Z,13.20
2019-04-04T19:52:27.324Z,13.10
2019-04-04T19:54:58.682Z,13.00
2019-04-04T19:57:30.235Z,12.90
2019-04-04T20:00:01.451Z,12.90
2019-04-04T20:02:32.693Z,12.90
2019-04-04T20:05:04.003Z,12.80
2019-04-04T20:07:35.211Z,12.80
2019-04-04T20:10:07.085Z,12.70
2019-04-04T20:15:08.916Z,12.70
2019-04-04T20:17:40.105Z,12.70
2019-04-04T20:20:11.981Z,12.60
2019-04-04T20:22:43.218Z,12.60
2019-04-04T20:25:14.361Z,12.60
2019-04-04T20:27:54.497Z,12.60
2019-04-04T20:30:23.539Z,12.50
2019-04-04T20:32:56.595Z,12.40
2019-04-04T20:35:27.835Z,12.40
2019-04-04T20:37:59.017Z,12.30
2019-04-04T20:40:30.153Z,12.30
2019-04-04T20:45:43.017Z,12.30
2019-04-04T20:48:19.890Z,12.20
2019-04-04T20:55:58.299Z,12.00
2019-04-04T20:58:31.082Z,12.00
2019-04-04T21:01:02.126Z,12.00
2019-04-04T21:03:33.392Z,12.00
2019-04-04T21:06:04.510Z,11.90
2019-04-04T21:08:36.210Z,11.90
2019-04-04T21:11:07.428Z,11.90
2019-04-04T21:13:38.565Z,11.90
2019-04-04T21:16:31.849Z,12.00
2019-04-04T21:19:07.094Z,12.00
2019-04-04T21:21:38.341Z,12.00
2019-04-04T21:24:09.442Z,12.00
2019-04-04T21:26:40.506Z,12.00
2019-04-04T21:29:11.786Z,12.00
2019-04-04T21:31:42.970Z,12.00
2019-04-04T21:34:17.054Z,12.00
2019-04-04T21:39:18.074Z,12.00
2019-04-04T21:41:58.110Z,12.20
2019-04-04T21:49:29.718Z,12.00
2019-04-04T21:57:01.638Z,12.00
2019-04-04T22:02:03.062Z,12.00
2019-04-04T22:04:34.219Z,12.00
2019-04-04T22:07:05.683Z,12.00
2019-04-04T22:09:36.806Z,12.00
2019-04-04T22:12:08.069Z,12.00
2019-04-04T22:17:09.363Z,12.00
2019-04-04T22:19:40.474Z,12.00
2019-04-04T22:22:11.606Z,11.90
2019-04-04T22:27:13.226Z,11.80
2019-04-04T22:37:15.325Z,11.50
2019-04-04T22:39:46.454Z,11.40
2019-04-04T22:42:17.630Z,11.40
2019-04-04T22:47:18.978Z,11.20
2019-04-04T22:49:50.186Z,11.20
2019-04-04T22:52:21.394Z,11.10
2019-04-04T22:54:52.503Z,11.10
2019-04-04T22:57:23.638Z,11.00
2019-04-04T22:59:54.930Z,10.90
2019-04-04T23:02:26.021Z,10.80
2019-04-04T23:04:57.078Z,10.70
2019-04-04T23:12:29.810Z,10.60
2019-04-04T23:15:00.927Z,10.60
2019-04-04T23:22:33.186Z,10.80
2019-04-04T23:25:04.598Z,10.80
2019-04-04T23:27:35.762Z,10.80
2019-04-04T23:32:38.336Z,10.70
2019-04-04T23:35:09.604Z,10.60
2019-04-04T23:37:41.141Z,10.70
2019-04-04T23:40:12.298Z,10.70
2019-04-04T23:42:43.434Z,10.60
2019-04-04T23:45:14.710Z,10.60
2019-04-04T23:50:16.531Z,10.60
2019-04-04T23:52:47.710Z,10.70
2019-04-04T23:55:18.847Z,10.60
2019-04-04T23:57:50.409Z,10.60
